Time;durP1;ratioP1;P1;durP2;ratioP2;P2;SDS_P1;SDS_P2;PMS_P1;PMS_P2;Temp;Humidity;BMP_temperature;BMP_pressure;BME280_temperature;BME280_humidity;BME280_pressure;Samples;Min_cycle;Max_cycle;Signal;HPM_P1;HPM_P2
2022/11/06 00:01:29;;;;;;;11.00;7.40;;;8.20;84.00;;;;;;5051240;28;20095;-60
2022/11/06 00:03:55;;;;;;;9.50;6.88;;;8.10;84.20;;;;;;5060369;28;20029;-62
2022/11/06 00:09:08;;;;;;;9.80;6.38;;;8.10;84.80;;;;;;5060112;28;20510;-62
2022/11/06 00:11:33;;;;;;;9.15;6.57;;;8.10;84.80;;;;;;5059395;28;20028;-61
2022/11/06 00:14:00;;;;;;;8.77;6.28;;;8.00;84.90;;;;;;5051779;28;20033;-61
2022/11/06 00:16:26;;;;;;;10.82;7.18;;;8.00;85.10;;;;;;5056951;28;20037;-58
2022/11/06 00:18:52;;;;;;;10.45;6.68;;;8.10;85.10;;;;;;5056572;28;20387;-62
2022/11/06 00:21:23;;;;;;;9.52;6.15;;;8.00;84.80;;;;;;5053537;28;20021;-61
2022/11/06 00:23:50;;;;;;;7.68;5.40;;;8.10;84.90;;;;;;5058212;28;20515;-61
2022/11/06 00:26:18;;;;;;;9.95;6.32;;;8.00;85.10;;;;;;5057953;28;20507;-61
2022/11/06 00:28:43;;;;;;;10.85;6.68;;;8.00;85.20;;;;;;5055671;28;20037;-61
2022/11/06 00:31:12;;;;;;;11.70;7.20;;;8.10;85.20;;;;;;5053115;28;20032;-60
2022/11/06 00:33:38;;;;;;;10.15;6.60;;;8.10;85.10;;;;;;5055577;28;20410;-63
2022/11/06 00:36:05;;;;;;;10.32;7.45;;;8.10;85.00;;;;;;5053072;28;20021;-61
2022/11/06 00:38:31;;;;;;;10.15;6.50;;;8.10;85.00;;;;;;5063490;28;20032;-62
2022/11/06 00:41:05;;;;;;;10.25;6.53;;;8.10;85.30;;;;;;5054652;28;20052;-61
2022/11/06 00:43:31;;;;;;;9.98;6.50;;;8.10;85.60;;;;;;5054982;28;20082;-62
2022/11/06 00:46:11;;;;;;;8.48;6.20;;;8.20;85.70;;;;;;5051942;28;20045;-61
2022/11/06 00:48:38;;;;;;;9.55;6.68;;;8.30;85.40;;;;;;5061893;28;20072;-62
2022/11/06 00:51:14;;;;;;;9.82;6.88;;;8.40;85.00;;;;;;5060842;28;20535;-61
2022/11/06 00:53:41;;;;;;;10.85;6.88;;;8.40;84.60;;;;;;5062857;28;20024;-61
2022/11/06 00:56:12;;;;;;;8.70;6.10;;;8.50;84.60;;;;;;5052774;28;20038;-62
2022/11/06 00:58:38;;;;;;;7.80;5.50;;;8.50;84.60;;;;;;5056129;28;20031;-62
2022/11/06 01:01:13;;;;;;;10.57;7.07;;;8.60;84.60;;;;;;5052175;28;20029;-56
2022/11/06 01:03:41;;;;;;;10.65;7.07;;;8.70;84.20;;;;;;5056588;28;20093;-57
2022/11/06 01:06:09;;;;;;;10.13;7.25;;;8.70;83.80;;;;;;5052695;28;20021;-57
2022/11/06 01:08:35;;;;;;;10.52;7.53;;;8.80;83.60;;;;;;5057415;28;20052;-57
2022/11/06 01:11:10;;;;;;;8.27;6.35;;;8.80;83.30;;;;;;5052232;28;20090;-57
2022/11/06 01:13:36;;;;;;;10.52;7.22;;;8.90;83.10;;;;;;5065269;28;20040;-58
2022/11/06 01:16:05;;;;;;;9.45;6.22;;;8.90;83.10;;;;;;5053309;28;20104;-57
2022/11/06 01:18:30;;;;;;;9.40;6.78;;;9.00;83.00;;;;;;5053802;28;20027;-57
2022/11/06 01:20:56;;;;;;;8.95;6.57;;;9.10;82.90;;;;;;5047677;28;20285;-57
2022/11/06 01:23:22;;;;;;;9.15;6.25;;;9.10;82.70;;;;;;5056057;28;20112;-57
2022/11/06 01:25:58;;;;;;;9.85;6.60;;;9.20;82.60;;;;;;5051139;28;20033;-57
2022/11/06 01:28:24;;;;;;;7.18;5.30;;;9.20;82.30;;;;;;5065896;28;20074;-57
2022/11/06 01:30:50;;;;;;;8.82;7.00;;;9.20;82.30;;;;;;5054666;28;20033;-58
2022/11/06 01:33:16;;;;;;;10.32;6.78;;;9.30;82.20;;;;;;5056923;28;20428;-57
2022/11/06 01:35:49;;;;;;;8.48;6.25;;;9.30;81.90;;;;;;5054216;28;20090;-57
2022/11/06 01:38:16;;;;;;;9.18;6.80;;;9.40;81.60;;;;;;5062114;28;20472;-57
2022/11/06 01:40:43;;;;;;;9.20;6.65;;;9.40;81.40;;;;;;5059896;28;20043;-57
2022/11/06 01:43:47;;;;;;;8.95;6.38;;;9.40;81.10;;;;;;5055686;28;20380;-57
2022/11/06 01:46:13;;;;;;;9.27;6.70;;;9.40;80.70;;;;;;5025105;28;20508;-57
2022/11/06 01:48:42;;;;;;;8.40;6.43;;;9.40;80.90;;;;;;5055049;28;20075;-56
2022/11/06 01:51:08;;;;;;;7.90;5.65;;;9.40;80.80;;;;;;5061002;28;20107;-56
2022/11/06 01:53:34;;;;;;;9.90;6.20;;;9.40;80.70;;;;;;5059758;28;20103;-57
2022/11/06 01:56:03;;;;;;;9.07;6.03;;;9.40;80.90;;;;;;5038982;28;21301;-56
2022/11/06 01:58:32;;;;;;;8.35;5.50;;;9.40;80.90;;;;;;5056153;28;20503;-57
2022/11/06 02:00:58;;;;;;;9.05;5.93;;;9.40;81.10;;;;;;5059916;28;20499;-57
2022/11/06 02:03:24;;;;;;;8.55;6.57;;;9.50;80.90;;;;;;5058026;28;20387;-57
2022/11/06 02:05:50;;;;;;;9.48;6.25;;;9.50;80.60;;;;;;5058947;28;20111;-58
2022/11/06 02:08:18;;;;;;;9.52;6.53;;;9.50;80.30;;;;;;5049759;28;20029;-57
2022/11/06 02:10:44;;;;;;;10.50;7.32;;;9.50;80.20;;;;;;5055208;28;20076;-58
2022/11/06 02:13:56;;;;;;;10.65;7.65;;;9.40;80.00;;;;;;5053717;28;20447;-56
2022/11/06 02:16:39;;;;;;;8.32;6.03;;;9.40;79.70;;;;;;5037743;28;20396;-57
2022/11/06 02:19:07;;;;;;;10.43;7.30;;;9.30;79.80;;;;;;5052183;28;20025;-57
2022/11/06 02:22:02;;;;;;;9.30;6.60;;;9.30;80.30;;;;;;5055676;28;20056;-57
2022/11/06 02:24:52;;;;;;;9.20;6.43;;;9.20;80.20;;;;;;5044404;28;20527;-58
2022/11/06 02:27:22;;;;;;;9.43;6.35;;;9.20;80.30;;;;;;5043587;28;20020;-57
2022/11/06 02:29:53;;;;;;;9.18;6.38;;;9.20;80.30;;;;;;5051220;28;20025;-57
2022/11/06 02:32:38;;;;;;;9.75;6.20;;;9.10;80.40;;;;;;5057706;28;20403;-57
2022/11/06 02:35:30;;;;;;;12.27;8.18;;;9.10;80.40;;;;;;5058045;28;20033;-57
2022/11/06 02:38:02;;;;;;;10.00;5.95;;;9.00;80.20;;;;;;5055465;28;20105;-58
2022/11/06 02:40:32;;;;;;;10.35;6.30;;;8.90;80.30;;;;;;5051009;28;20112;-57
2022/11/06 02:43:04;;;;;;;9.02;5.78;;;8.90;80.60;;;;;;5052241;28;20518;-56
2022/11/06 02:45:31;;;;;;;;;;;8.90;80.70;;;;;;5053111;28;20041;-57
2022/11/06 02:47:58;;;;;;;8.40;5.55;;;8.80;80.80;;;;;;5057835;28;19932;-56
2022/11/06 02:50:34;;;;;;;8.95;6.07;;;8.80;80.90;;;;;;5058007;28;20025;-57
2022/11/06 02:53:06;;;;;;;10.43;6.70;;;8.80;81.00;;;;;;5051056;28;20519;-56
2022/11/06 02:55:49;;;;;;;10.98;6.88;;;8.70;81.00;;;;;;5049714;28;20496;-56
2022/11/06 02:58:22;;;;;;;9.32;6.57;;;8.70;81.00;;;;;;5064638;28;20422;-57
2022/11/06 03:00:56;;;;;;;12.27;8.25;;;8.70;81.20;;;;;;5051747;28;20094;-57
2022/11/06 03:03:31;;;;;;;10.18;7.05;;;8.60;81.30;;;;;;5056902;28;20025;-57
2022/11/06 03:06:05;;;;;;;10.90;6.82;;;8.60;81.30;;;;;;5051249;28;20029;-57
2022/11/06 03:08:38;;;;;;;10.15;6.85;;;8.60;81.60;;;;;;5057212;28;20037;-58
2022/11/06 03:11:16;;;;;;;8.32;5.88;;;8.60;81.70;;;;;;5052514;28;20499;-57
2022/11/06 03:13:58;;;;;;;9.25;6.50;;;8.60;81.70;;;;;;5056631;28;20399;-57
2022/11/06 03:16:27;;;;;;;9.38;6.70;;;8.60;81.60;;;;;;5051162;28;20377;-57
2022/11/06 03:19:06;;;;;;;8.68;5.93;;;8.60;81.70;;;;;;5054241;28;20032;-57
2022/11/06 03:21:44;;;;;;;8.57;6.13;;;8.60;81.80;;;;;;5052864;28;20032;-56
2022/11/06 03:24:16;;;;;;;9.48;6.75;;;8.70;81.70;;;;;;5057417;28;20780;-57
2022/11/06 03:26:50;;;;;;;10.00;6.45;;;8.70;81.50;;;;;;5061288;28;20033;-58
2022/11/06 03:29:47;;;;;;;9.48;6.22;;;8.70;81.50;;;;;;5064932;28;20031;-56
2022/11/06 03:32:34;;;;;;;8.85;5.43;;;8.70;81.30;;;;;;5059668;28;20049;-58
2022/11/06 03:35:08;;;;;;;8.57;6.10;;;8.70;81.30;;;;;;5050925;28;20065;-57
2022/11/06 03:37:43;;;;;;;8.50;5.45;;;8.70;81.30;;;;;;5058914;28;20043;-57
2022/11/06 03:40:14;;;;;;;11.15;6.93;;;8.70;81.30;;;;;;5060230;28;20028;-57
2022/11/06 03:42:43;;;;;;;8.95;5.80;;;8.70;81.30;;;;;;5063331;28;20350;-57
2022/11/06 03:45:14;;;;;;;9.40;6.72;;;8.80;81.40;;;;;;5067009;28;20062;-57
2022/11/06 03:47:47;;;;;;;10.02;6.75;;;8.80;81.30;;;;;;5057522;28;20027;-57
2022/11/06 03:50:29;;;;;;;9.15;6.07;;;8.90;81.20;;;;;;5050083;28;20025;-57
2022/11/06 03:53:01;;;;;;;9.65;6.55;;;8.90;81.10;;;;;;5061406;28;20025;-57
2022/11/06 03:55:35;;;;;;;9.82;6.72;;;8.90;80.90;;;;;;5054309;28;20131;-57
2022/11/06 03:58:06;;;;;;;8.35;6.05;;;9.00;80.70;;;;;;5066158;28;20048;-57
2022/11/06 04:00:35;;;;;;;9.20;6.38;;;9.00;80.60;;;;;;5054201;28;20044;-57
2022/11/06 04:03:05;;;;;;;8.70;6.32;;;9.00;80.50;;;;;;5063714;28;20047;-56
2022/11/06 04:05:40;;;;;;;9.48;6.32;;;9.00;80.40;;;;;;5054041;28;20506;-57
2022/11/06 04:14:03;;;;;;;10.82;6.80;;;9.10;80.10;;;;;;5050139;28;20059;-57
2022/11/06 04:16:37;;;;;;;8.60;5.70;;;9.10;79.80;;;;;;5054711;28;20601;-58
2022/11/06 04:19:12;;;;;;;8.45;6.22;;;9.10;79.70;;;;;;5055278;28;20064;-57
2022/11/06 04:22:02;;;;;;;10.38;6.88;;;9.10;79.70;;;;;;5056974;28;20082;-57
2022/11/06 04:27:32;;;;;;;;;;;9.10;79.30;;;;;;5063285;28;20036;-56
2022/11/06 04:30:09;;;;;;;7.63;5.82;;;9.00;79.10;;;;;;5066934;28;19920;-58
2022/11/06 04:32:56;;;;;;;8.27;6.07;;;9.10;79.30;;;;;;5059151;28;20048;-57
2022/11/06 04:35:41;;;;;;;8.85;6.40;;;9.00;79.20;;;;;;5040098;28;20511;-57
2022/11/06 04:38:25;;;;;;;9.45;6.57;;;9.00;79.00;;;;;;5062717;28;20067;-56
2022/11/06 04:41:03;;;;;;;9.32;6.82;;;9.00;79.00;;;;;;5052915;28;20380;-57
2022/11/06 04:43:56;;;;;;;9.68;6.18;;;9.00;78.90;;;;;;5053323;28;20093;-58
2022/11/06 04:46:35;;;;;;;9.63;6.30;;;9.00;78.80;;;;;;5056181;28;20158;-59
2022/11/06 04:49:03;;;;;;;7.97;5.70;;;8.90;78.70;;;;;;5054108;28;20032;-58
2022/11/06 04:51:34;;;;;;;8.70;5.60;;;8.90;79.00;;;;;;5051582;28;20064;-57
2022/11/06 04:54:01;;;;;;;8.85;5.85;;;8.90;79.10;;;;;;5052917;28;20032;-56
2022/11/06 04:56:32;;;;;;;8.73;6.10;;;8.90;79.00;;;;;;5053221;28;20033;-58
2022/11/06 04:58:58;;;;;;;;;;;9.00;79.00;;;;;;5056686;28;20044;-57
2022/11/06 05:01:24;;;;;;;7.53;5.43;;;8.90;78.60;;;;;;5053310;28;19908;-57
2022/11/06 05:03:50;;;;;;;9.20;6.28;;;8.90;78.80;;;;;;5063676;28;20570;-57
2022/11/06 05:06:16;;;;;;;8.88;6.15;;;9.00;78.70;;;;;;5058682;28;20040;-57
2022/11/06 05:08:42;;;;;;;9.10;6.32;;;8.90;78.50;;;;;;5067650;28;20020;-57
2022/11/06 05:11:08;;;;;;;9.68;6.22;;;8.90;78.50;;;;;;5056080;28;20033;-57
2022/11/06 05:13:34;;;;;;;8.93;5.78;;;8.90;78.60;;;;;;5052239;28;20049;-57
2022/11/06 05:15:59;;;;;;;7.72;6.35;;;8.80;78.70;;;;;;5054205;28;20040;-57
2022/11/06 05:18:26;;;;;;;10.27;6.32;;;8.80;78.80;;;;;;5055316;28;20405;-58
2022/11/06 05:22:56;;;;;;;9.20;5.95;;;8.90;78.70;;;;;;5055940;28;20537;-57
2022/11/06 05:23:39;;;;;;;10.10;6.65;;;8.90;78.70;;;;;;5048676;28;20549;-57
2022/11/06 05:26:05;;;;;;;8.25;6.38;;;8.90;78.50;;;;;;5054326;28;20021;-58
2022/11/06 05:28:31;;;;;;;9.50;6.47;;;8.90;78.50;;;;;;5051636;28;20068;-57
2022/11/06 05:30:56;;;;;;;10.77;6.97;;;8.80;78.40;;;;;;5052278;28;20496;-57
2022/11/06 05:33:22;;;;;;;11.70;6.57;;;8.80;78.30;;;;;;5061178;28;20115;-58
2022/11/06 05:35:49;;;;;;;10.13;6.68;;;8.80;78.30;;;;;;5052577;28;20126;-57
2022/11/06 05:38:14;;;;;;;9.45;7.50;;;8.80;78.30;;;;;;5061929;28;20035;-57
2022/11/06 05:40:40;;;;;;;9.43;6.55;;;8.80;78.30;;;;;;5052407;28;20024;-57
2022/11/06 05:43:05;;;;;;;9.02;6.43;;;8.70;78.40;;;;;;5058963;28;20503;-57
2022/11/06 05:45:31;;;;;;;8.75;6.18;;;8.70;78.50;;;;;;5055634;28;20043;-56
2022/11/06 05:47:57;;;;;;;9.82;6.72;;;8.70;78.40;;;;;;5067467;28;20037;-57
2022/11/06 05:50:23;;;;;;;8.63;6.25;;;8.70;78.30;;;;;;5055769;28;20037;-57
2022/11/06 05:52:48;;;;;;;9.55;6.30;;;8.70;78.50;;;;;;5053536;28;20032;-57
2022/11/06 05:55:14;;;;;;;8.00;6.00;;;8.70;78.50;;;;;;5056705;28;20036;-57
2022/11/06 05:57:40;;;;;;;9.27;6.50;;;8.70;78.70;;;;;;5063257;28;20031;-57
2022/11/06 06:00:06;;;;;;;8.55;5.97;;;8.70;78.90;;;;;;5052834;28;20017;-57
2022/11/06 06:02:32;;;;;;;8.30;5.78;;;8.80;78.70;;;;;;5052049;28;20488;-57
2022/11/06 06:04:58;;;;;;;10.23;6.78;;;8.80;78.80;;;;;;5061447;28;20056;-58
2022/11/06 06:07:23;;;;;;;11.45;7.25;;;8.80;78.40;;;;;;5061680;28;20097;-57
2022/11/06 06:09:49;;;;;;;10.75;6.93;;;8.80;78.30;;;;;;5053694;28;20025;-57
2022/11/06 06:12:15;;;;;;;10.65;6.60;;;8.80;78.00;;;;;;5060214;28;20063;-56
2022/11/06 06:14:40;;;;;;;8.85;5.85;;;8.80;78.20;;;;;;5051365;28;20472;-58
2022/11/06 06:17:06;;;;;;;8.75;5.93;;;8.80;78.30;;;;;;5048539;28;20048;-57
2022/11/06 06:19:32;;;;;;;8.40;5.75;;;8.90;78.50;;;;;;5051372;28;20025;-57
2022/11/06 06:21:57;;;;;;;8.93;5.75;;;8.90;78.30;;;;;;5057407;28;20115;-57
2022/11/06 06:24:23;;;;;;;9.82;5.68;;;8.90;78.30;;;;;;5064759;28;20367;-57
2022/11/06 06:26:49;;;;;;;8.18;5.93;;;9.00;78.30;;;;;;5053630;28;20488;-57
2022/11/06 06:29:14;;;;;;;8.50;5.63;;;9.00;78.30;;;;;;5051387;28;20040;-57
2022/11/06 06:31:40;;;;;;;8.02;5.90;;;9.00;78.00;;;;;;5064861;28;20060;-57
2022/11/06 06:34:06;;;;;;;8.65;6.00;;;9.00;78.50;;;;;;5053576;28;20026;-57
2022/11/06 06:36:31;;;;;;;10.00;6.65;;;9.00;77.80;;;;;;5049940;28;20036;-57
2022/11/06 06:38:57;;;;;;;8.73;5.65;;;9.00;77.80;;;;;;5053662;28;20024;-56
2022/11/06 06:41:22;;;;;;;8.15;5.43;;;9.00;77.80;;;;;;5049671;28;20029;-58
2022/11/06 06:43:48;;;;;;;7.78;5.22;;;9.00;77.70;;;;;;5049782;28;20025;-56
2022/11/06 06:46:14;;;;;;;9.65;5.85;;;9.00;77.80;;;;;;5059427;28;20052;-57
2022/11/06 06:48:40;;;;;;;10.05;6.88;;;9.00;77.80;;;;;;5061596;28;20111;-57
2022/11/06 06:51:06;;;;;;;7.95;5.40;;;9.00;77.70;;;;;;5055212;28;20396;-57
2022/11/06 06:53:32;;;;;;;9.65;5.60;;;9.00;77.70;;;;;;5060586;28;20065;-57
2022/11/06 06:55:59;;;;;;;8.57;6.25;;;9.00;77.60;;;;;;5056766;28;20020;-57
2022/11/06 06:58:25;;;;;;;8.27;5.88;;;9.00;77.60;;;;;;5059094;28;20033;-56
2022/11/06 07:00:51;;;;;;;8.55;5.80;;;9.10;77.50;;;;;;5051127;28;20029;-56
2022/11/06 07:03:17;;;;;;;9.32;6.00;;;9.10;77.30;;;;;;5054556;28;20151;-57
2022/11/06 07:05:42;;;;;;;6.85;5.18;;;9.00;77.00;;;;;;5050591;28;20039;-57
2022/11/06 07:08:08;;;;;;;7.90;4.85;;;9.00;77.10;;;;;;5056180;28;20080;-58
2022/11/06 07:10:34;;;;;;;9.00;5.30;;;9.00;77.20;;;;;;5050719;28;20025;-57
2022/11/06 07:13:04;;;;;;;8.20;5.32;;;9.00;77.20;;;;;;5062404;28;20395;-58
2022/11/06 07:15:30;;;;;;;7.95;5.05;;;9.10;77.20;;;;;;5055489;28;20450;-57
2022/11/06 07:18:01;;;;;;;6.15;4.35;;;9.10;77.10;;;;;;5064154;28;20451;-56
2022/11/06 07:20:27;;;;;;;7.85;4.82;;;9.10;77.20;;;;;;5054075;28;20443;-58
2022/11/06 07:22:52;;;;;;;6.22;4.55;;;9.10;76.80;;;;;;5049880;28;20061;-57
2022/11/06 07:25:18;;;;;;;6.95;4.82;;;9.10;76.60;;;;;;5061749;28;20081;-57
2022/11/06 07:27:44;;;;;;;7.55;4.95;;;9.00;76.50;;;;;;5057800;28;20079;-57
2022/11/06 07:30:10;;;;;;;6.65;4.55;;;9.00;76.50;;;;;;5063402;28;20036;-57
2022/11/06 07:32:36;;;;;;;8.02;5.22;;;9.00;76.40;;;;;;5059921;28;20317;-57
2022/11/06 07:35:02;;;;;;;7.63;4.82;;;9.00;76.30;;;;;;5061049;28;20028;-57
2022/11/06 07:37:27;;;;;;;5.93;4.07;;;9.00;76.30;;;;;;5054294;28;20111;-58
2022/11/06 07:39:53;;;;;;;6.22;4.80;;;9.00;76.50;;;;;;5059216;28;20116;-57
2022/11/06 07:42:18;;;;;;;6.10;4.38;;;9.00;76.20;;;;;;5054918;28;20025;-57
2022/11/06 07:44:44;;;;;;;7.25;4.50;;;9.00;75.90;;;;;;5060354;28;20033;-57
2022/11/06 07:47:10;;;;;;;7.13;4.97;;;9.00;75.90;;;;;;5062838;28;20033;-57
2022/11/06 07:49:35;;;;;;;6.68;4.57;;;8.90;75.90;;;;;;5058884;28;20132;-57
2022/11/06 07:52:01;;;;;;;8.10;5.75;;;8.90;76.20;;;;;;5044628;28;20063;-57
2022/11/06 07:54:27;;;;;;;6.53;4.88;;;8.80;76.00;;;;;;5057610;28;20037;-57
2022/11/06 07:56:53;;;;;;;8.90;5.10;;;8.80;75.90;;;;;;5061180;28;20086;-56
2022/11/06 07:59:18;;;;;;;7.28;4.65;;;8.70;75.90;;;;;;5056638;28;20036;-57
2022/11/06 08:01:44;;;;;;;6.72;4.97;;;8.60;75.90;;;;;;5052950;28;20021;-56
2022/11/06 08:04:10;;;;;;;7.70;4.90;;;8.60;76.40;;;;;;5058759;28;20038;-58
2022/11/06 08:06:36;;;;;;;6.80;4.72;;;8.60;76.40;;;;;;5057642;28;20560;-57
2022/11/06 08:09:05;;;;;;;8.45;5.55;;;8.60;76.40;;;;;;5051446;28;20103;-57
2022/11/06 08:11:30;;;;;;;7.35;5.32;;;8.60;76.50;;;;;;5060636;28;20025;-58
2022/11/06 08:13:59;;;;;;;7.53;5.05;;;8.50;76.30;;;;;;5060635;28;20128;-57
2022/11/06 08:16:24;;;;;;;6.50;5.03;;;8.50;76.30;;;;;;5052801;28;20044;-58
2022/11/06 08:18:50;;;;;;;8.25;5.55;;;8.50;76.30;;;;;;5050417;28;20121;-56
2022/11/06 08:21:16;;;;;;;6.53;4.80;;;8.40;76.40;;;;;;5053828;28;20029;-56
2022/11/06 08:23:41;;;;;;;7.65;5.13;;;8.30;76.20;;;;;;5058571;28;20087;-57
2022/11/06 08:26:07;;;;;;;10.23;5.47;;;8.30;76.80;;;;;;5050898;28;20048;-57
2022/11/06 08:28:33;;;;;;;8.55;5.60;;;8.20;76.90;;;;;;5066198;28;20035;-57
2022/11/06 08:31:03;;;;;;;7.65;5.43;;;8.20;77.00;;;;;;5056901;28;20468;-58
2022/11/06 08:33:29;;;;;;;8.05;5.78;;;8.20;77.00;;;;;;5052208;28;20128;-57
2022/11/06 08:35:54;;;;;;;7.57;5.20;;;8.20;76.90;;;;;;5051908;28;20507;-57
2022/11/06 08:38:20;;;;;;;7.60;5.07;;;8.20;76.90;;;;;;5063628;28;20024;-57
2022/11/06 08:40:45;;;;;;;7.65;5.40;;;8.20;77.00;;;;;;5055512;28;20545;-57
2022/11/06 08:43:11;;;;;;;7.28;5.25;;;8.10;76.80;;;;;;5057426;28;20033;-57
2022/11/06 08:45:39;;;;;;;6.80;5.10;;;8.10;77.00;;;;;;5059677;28;20083;-58
2022/11/06 08:48:06;;;;;;;7.63;5.95;;;8.20;77.00;;;;;;5061300;28;20074;-57
2022/11/06 08:50:33;;;;;;;8.23;5.80;;;8.10;77.00;;;;;;5060793;28;20032;-57
2022/11/06 08:53:02;;;;;;;7.93;5.10;;;8.10;76.90;;;;;;5054766;28;20083;-57
2022/11/06 08:55:29;;;;;;;7.72;4.90;;;8.10;77.00;;;;;;5040030;28;20037;-58
2022/11/06 08:57:55;;;;;;;6.90;5.18;;;8.10;77.00;;;;;;5058376;28;20057;-57
2022/11/06 09:00:21;;;;;;;6.47;4.80;;;8.10;77.40;;;;;;5055832;28;20388;-57
2022/11/06 09:02:47;;;;;;;6.45;4.80;;;8.20;77.30;;;;;;5060701;28;20495;-57
2022/11/06 09:05:12;;;;;;;7.28;5.35;;;8.20;77.20;;;;;;5052709;28;20016;-58
2022/11/06 09:07:38;;;;;;;7.80;5.57;;;8.30;77.00;;;;;;5052847;28;20428;-59
2022/11/06 09:10:04;;;;;;;6.50;5.03;;;8.30;76.80;;;;;;5065421;28;20480;-57
2022/11/06 09:12:30;;;;;;;6.93;4.95;;;8.30;76.90;;;;;;5051325;28;20526;-57
2022/11/06 09:14:55;;;;;;;7.40;4.90;;;8.40;76.90;;;;;;5056092;28;20098;-57
2022/11/06 09:17:23;;;;;;;7.97;5.28;;;8.40;76.70;;;;;;5057044;28;20051;-58
2022/11/06 09:19:52;;;;;;;7.00;4.75;;;8.50;76.40;;;;;;5050112;28;20025;-57
2022/11/06 09:22:18;;;;;;;7.57;4.55;;;8.50;76.30;;;;;;5068812;28;20371;-56
2022/11/06 09:24:43;;;;;;;6.20;4.82;;;8.50;76.10;;;;;;5058011;28;20037;-57
2022/11/06 09:27:09;;;;;;;6.10;4.63;;;8.60;75.90;;;;;;5063206;28;20036;-57
2022/11/06 09:29:34;;;;;;;5.30;4.00;;;8.50;75.70;;;;;;5056693;28;20037;-58
2022/11/06 09:32:00;;;;;;;5.95;4.18;;;8.50;75.50;;;;;;5057895;28;20024;-57
2022/11/06 09:34:26;;;;;;;5.85;4.40;;;8.60;75.60;;;;;;5052926;28;20063;-57
2022/11/06 09:36:51;;;;;;;5.90;4.50;;;8.60;75.40;;;;;;5061037;28;20110;-57
2022/11/06 09:39:17;;;;;;;6.05;4.75;;;8.60;75.50;;;;;;5064122;28;20100;-57
2022/11/06 09:42:04;;;;;;;5.82;4.47;;;8.60;75.50;;;;;;5058665;28;20020;-58
2022/11/06 09:44:42;;;;;;;7.35;4.78;;;8.70;75.60;;;;;;5056490;28;20087;-55
2022/11/06 09:47:24;;;;;;;6.88;4.38;;;8.80;75.50;;;;;;5058297;28;20025;-57
2022/11/06 09:49:53;;;;;;;6.70;4.82;;;8.80;75.10;;;;;;5053475;28;20028;-59
2022/11/06 09:52:45;;;;;;;7.70;4.70;;;8.90;75.00;;;;;;5054118;28;20040;-57
2022/11/06 09:55:10;;;;;;;;;;;8.90;74.90;;;;;;5056869;28;20045;-56
2022/11/06 09:57:42;;;;;;;6.05;4.50;;;8.90;74.70;;;;;;5058066;28;20278;-56
2022/11/06 10:00:13;;;;;;;6.95;4.93;;;8.90;75.00;;;;;;5060010;28;20020;-57
2022/11/06 10:02:48;;;;;;;7.43;5.05;;;8.90;75.30;;;;;;5056751;28;20056;-57
2022/11/06 10:05:29;;;;;;;7.07;5.25;;;9.00;74.70;;;;;;5066882;28;20021;-57
2022/11/06 10:08:01;;;;;;;8.70;5.30;;;9.00;74.40;;;;;;5057010;28;20067;-57
2022/11/06 10:10:41;;;;;;;6.07;4.45;;;8.90;74.10;;;;;;5065840;28;20274;-58
2022/11/06 10:13:21;;;;;;;6.03;4.75;;;8.90;74.30;;;;;;5069429;28;20132;-58
2022/11/06 10:16:06;;;;;;;5.95;3.90;;;8.90;74.40;;;;;;5057044;28;20351;-57
2022/11/06 10:18:42;;;;;;;6.78;4.78;;;8.90;74.30;;;;;;5057260;28;20420;-58
2022/11/06 10:21:11;;;;;;;4.90;4.07;;;8.90;74.50;;;;;;5055105;28;20023;-57
2022/11/06 10:23:45;;;;;;;5.10;4.05;;;9.00;74.70;;;;;;5056892;28;20039;-57
2022/11/06 10:26:15;;;;;;;6.35;4.75;;;9.00;74.50;;;;;;5058396;28;20029;-58
2022/11/06 10:28:44;;;;;;;6.80;4.30;;;9.00;74.40;;;;;;5065433;28;20025;-58
2022/11/06 10:31:41;;;;;;;5.57;4.15;;;9.10;74.50;;;;;;5056933;28;20081;-57
2022/11/06 10:34:16;;;;;;;4.90;3.90;;;9.20;75.00;;;;;;5058554;28;20029;-57
2022/11/06 10:36:47;;;;;;;6.30;4.60;;;9.20;74.30;;;;;;5071198;28;20124;-57
2022/11/06 10:39:15;;;;;;;;;;;9.30;74.00;;;;;;5058533;28;20381;-57
2022/11/06 10:41:45;;;;;;;6.50;4.88;;;9.30;73.30;;;;;;5057921;28;19978;-57
2022/11/06 10:44:35;;;;;;;7.13;5.22;;;9.30;73.30;;;;;;5048936;28;20064;-57
2022/11/06 10:47:14;;;;;;;6.60;4.30;;;9.20;73.00;;;;;;5065632;28;20052;-57
2022/11/06 10:49:59;;;;;;;6.25;4.75;;;9.20;73.00;;;;;;5062096;28;20057;-57
2022/11/06 10:53:01;;;;;;;6.50;4.78;;;9.10;73.00;;;;;;5061249;28;20426;-57
2022/11/06 10:55:40;;;;;;;5.90;4.28;;;9.10;73.00;;;;;;5074323;28;20033;-56
2022/11/06 10:58:11;;;;;;;4.82;4.00;;;9.10;73.30;;;;;;5065560;28;20029;-57
2022/11/06 11:00:37;;;;;;;7.20;5.00;;;9.10;73.40;;;;;;5068023;28;20021;-58
2022/11/06 12:14:26;;;;;;;7.65;5.63;;;9.10;70.80;;;;;;5087714;27;20443;-61
2022/11/06 12:16:57;;;;;;;7.05;5.43;;;9.60;71.30;;;;;;5075800;28;20025;-61
2022/11/06 12:19:27;;;;;;;9.35;6.30;;;9.60;72.00;;;;;;5070480;28;20027;-62
2022/11/06 12:21:57;;;;;;;8.30;5.70;;;9.60;72.30;;;;;;5068225;28;20017;-62
2022/11/06 12:25:03;;;;;;;8.27;6.07;;;9.60;72.30;;;;;;5068294;28;20029;-62
2022/11/06 12:27:39;;;;;;;7.20;5.18;;;9.60;72.10;;;;;;5049671;28;20040;-61
2022/11/06 12:30:11;;;;;;;7.78;5.35;;;9.60;72.50;;;;;;5061376;28;20029;-62
2022/11/06 12:32:58;;;;;;;8.45;5.70;;;9.70;72.80;;;;;;5067821;28;20120;-62
2022/11/06 12:35:28;;;;;;;8.90;5.50;;;9.70;72.70;;;;;;5070387;28;20035;-62
2022/11/06 12:38:25;;;;;;;6.78;4.95;;;9.70;72.70;;;;;;5062646;28;20024;-62
2022/11/06 12:41:20;;;;;;;7.35;5.07;;;9.80;72.70;;;;;;5060723;28;20031;-62
2022/11/06 12:43:47;;;;;;;8.25;5.13;;;9.80;72.60;;;;;;5072996;28;20028;-62
2022/11/06 12:46:32;;;;;;;7.70;5.32;;;9.90;72.50;;;;;;5071226;28;20021;-61
2022/11/06 12:49:19;;;;;;;7.75;5.05;;;9.90;72.30;;;;;;5074077;28;20021;-62
2022/11/06 12:52:09;;;;;;;8.70;6.55;;;9.90;72.30;;;;;;5061208;28;20055;-62
2022/11/06 12:54:47;;;;;;;8.25;6.28;;;9.90;72.40;;;;;;5071443;28;20033;-62
2022/11/06 12:57:34;;;;;;;9.80;7.35;;;9.90;72.20;;;;;;5059570;28;20021;-61
2022/11/06 13:00:18;;;;;;;9.85;6.97;;;9.80;71.90;;;;;;5057091;28;20468;-62
2022/11/06 13:02:49;;;;;;;9.20;6.55;;;9.80;71.90;;;;;;5066344;28;20069;-62
2022/11/06 13:05:24;;;;;;;;;;;9.70;72.20;;;;;;5065452;28;20029;-60
2022/11/06 13:07:49;;;;;;;9.75;6.10;;;9.70;71.90;;;;;;5056062;28;19912;-61
2022/11/06 13:10:30;;;;;;;8.90;5.88;;;9.60;72.10;;;;;;5066270;28;20087;-60
2022/11/06 13:13:10;;;;;;;10.43;7.18;;;9.60;72.30;;;;;;5061956;28;20404;-62
2022/11/06 13:15:54;;;;;;;9.43;6.50;;;9.50;72.20;;;;;;5062864;28;20029;-61
2022/11/06 13:18:32;;;;;;;7.72;5.78;;;9.50;72.50;;;;;;5057695;28;20420;-61
2022/11/06 13:21:20;;;;;;;9.25;6.07;;;9.40;72.50;;;;;;5044384;28;20385;-61
2022/11/06 13:23:50;;;;;;;8.88;6.63;;;9.40;72.60;;;;;;5061568;28;20024;-62
2022/11/06 13:26:31;;;;;;;9.02;6.07;;;9.40;72.80;;;;;;5060359;28;20063;-62
2022/11/06 13:29:01;;;;;;;9.48;6.50;;;9.30;72.80;;;;;;5054044;28;20032;-61
2022/11/06 13:31:47;;;;;;;9.93;7.53;;;9.40;72.90;;;;;;5059721;28;20512;-61
2022/11/06 13:34:29;;;;;;;9.02;5.97;;;9.40;72.80;;;;;;5049808;28;20033;-62
2022/11/06 13:36:55;;;;;;;7.97;5.50;;;9.40;72.90;;;;;;5052933;28;20020;-62
2022/11/06 13:39:33;;;;;;;8.45;5.63;;;9.40;73.00;;;;;;5045108;28;20024;-62
2022/11/06 13:42:00;;;;;;;9.57;5.88;;;9.40;73.00;;;;;;5060493;28;20071;-61
2022/11/06 13:44:27;;;;;;;10.65;7.13;;;9.40;73.00;;;;;;5046998;28;20147;-62
2022/11/06 13:46:55;;;;;;;9.73;7.55;;;9.50;72.90;;;;;;5058101;28;20104;-62
2022/11/06 13:49:39;;;;;;;9.57;7.13;;;9.50;72.80;;;;;;5056876;28;20530;-61
2022/11/06 13:52:14;;;;;;;8.73;6.53;;;9.50;72.70;;;;;;5067434;28;20028;-62
2022/11/06 13:55:14;;;;;;;9.65;6.70;;;9.50;72.80;;;;;;5056446;28;20028;-62
2022/11/06 13:58:01;;;;;;;13.32;7.03;;;9.50;72.90;;;;;;5010670;28;20032;-61
2022/11/06 14:00:36;;;;;;;9.98;6.82;;;9.50;73.10;;;;;;5068193;28;20391;-62
2022/11/06 14:03:21;;;;;;;10.10;6.82;;;9.50;72.90;;;;;;5060461;28;20107;-62
2022/11/06 14:05:51;;;;;;;10.77;7.20;;;9.50;72.90;;;;;;5052982;28;20112;-62
2022/11/06 14:08:28;;;;;;;12.27;7.78;;;9.50;73.10;;;;;;5066180;28;20490;-62
2022/11/06 14:11:01;;;;;;;12.88;8.23;;;9.50;73.10;;;;;;5055009;28;20017;-61
2022/11/06 14:13:35;;;;;;;10.18;7.78;;;9.50;73.00;;;;;;5050354;28;20045;-61
2022/11/06 14:16:13;;;;;;;11.80;7.85;;;9.50;73.10;;;;;;5052218;28;20499;-62
2022/11/06 14:18:39;;;;;;;10.48;7.20;;;9.50;73.20;;;;;;5052126;28;20033;-62
2022/11/06 14:21:42;;;;;;;12.20;7.70;;;9.50;73.40;;;;;;5051103;28;20539;-62
2022/11/06 14:24:33;;;;;;;12.15;8.32;;;9.50;73.50;;;;;;5050811;28;20375;-62
2022/11/06 14:27:10;;;;;;;11.88;8.32;;;9.50;73.50;;;;;;5050203;28;20024;-59
2022/11/06 14:29:35;;;;;;;15.10;9.00;;;9.50;73.60;;;;;;5044027;28;20430;-61
2022/11/06 14:32:20;;;;;;;12.25;8.75;;;9.50;73.50;;;;;;5050808;28;20086;-62
2022/11/06 14:34:46;;;;;;;11.98;8.27;;;9.50;73.80;;;;;;5050390;28;20048;-64
2022/11/06 14:37:32;;;;;;;13.57;8.52;;;9.40;73.80;;;;;;5044821;28;20496;-62
2022/11/06 14:39:58;;;;;;;12.55;8.95;;;9.40;73.90;;;;;;5043608;28;20303;-61
2022/11/06 14:42:26;;;;;;;14.18;8.82;;;9.40;74.00;;;;;;5055205;28;20037;-62